Time;durP1;ratioP1;P1;durP2;ratioP2;P2;SDS_P1;SDS_P2;PMS_P1;PMS_P2;Temp;Humidity;BMP_temperature;BMP_pressure;BME280_temperature;BME280_humidity;BME280_pressure;Samples;Min_cycle;Max_cycle;Signal;HPM_P1;HPM_P2
2022/11/28 00:00:08;;;;;;;6.50;5.38;;;4.40;99.90;;;;;;5031773;28;20714;-69
2022/11/28 00:02:35;;;;;;;8.52;5.70;;;4.40;99.90;;;;;;5031438;28;20202;-69
2022/11/28 00:05:02;;;;;;;7.80;4.88;;;4.40;99.90;;;;;;5031695;28;20737;-69
2022/11/28 00:07:30;;;;;;;6.68;5.25;;;4.40;99.90;;;;;;5031739;28;20202;-68
2022/11/28 00:09:56;;;;;;;8.50;5.28;;;4.40;99.90;;;;;;5031580;28;20202;-69
2022/11/28 00:12:23;;;;;;;6.57;5.03;;;4.40;99.90;;;;;;5031520;28;20241;-69
2022/11/28 00:14:50;;;;;;;6.80;5.20;;;4.50;99.90;;;;;;5031391;28;20268;-69
2022/11/28 00:17:17;;;;;;;7.30;5.80;;;4.40;99.90;;;;;;5032038;28;20202;-69
2022/11/28 00:19:43;;;;;;;5.63;4.57;;;4.40;99.90;;;;;;5031370;28;20253;-68
2022/11/28 00:22:10;;;;;;;6.50;4.90;;;4.40;99.90;;;;;;5030961;28;20207;-70
2022/11/28 00:24:39;;;;;;;7.20;5.35;;;4.40;99.90;;;;;;5031524;28;20222;-69
2022/11/28 00:27:06;;;;;;;7.68;4.85;;;4.40;99.90;;;;;;5031659;28;20564;-69
2022/11/28 00:29:32;;;;;;;6.50;5.20;;;4.40;99.90;;;;;;5031490;28;20215;-69
2022/11/28 00:31:59;;;;;;;5.28;4.45;;;4.40;99.90;;;;;;5030980;28;20592;-69
2022/11/28 00:34:26;;;;;;;5.60;4.60;;;4.40;99.90;;;;;;5031413;28;20811;-68
2022/11/28 00:36:53;;;;;;;6.78;5.18;;;4.40;99.90;;;;;;5031059;28;20199;-68
2022/11/28 00:39:19;;;;;;;5.72;4.55;;;4.40;99.90;;;;;;5031199;28;20211;-68
2022/11/28 00:41:47;;;;;;;9.25;4.70;;;4.40;99.90;;;;;;5030319;28;20696;-69
2022/11/28 00:44:14;;;;;;;6.57;4.90;;;4.30;99.90;;;;;;5030875;28;20656;-70
2022/11/28 00:46:41;;;;;;;7.05;4.57;;;4.30;99.90;;;;;;5030868;28;20203;-67
2022/11/28 00:49:08;;;;;;;5.93;5.05;;;4.30;99.90;;;;;;5030570;28;20665;-70
2022/11/28 00:51:35;;;;;;;5.55;4.93;;;4.30;99.90;;;;;;5030196;28;20214;-70
2022/11/28 00:54:04;;;;;;;5.82;5.10;;;4.30;99.90;;;;;;5037897;28;20198;-69
2022/11/28 00:56:33;;;;;;;7.05;5.07;;;4.40;99.90;;;;;;5050863;28;20202;-70
2022/11/28 00:59:01;;;;;;;10.73;5.15;;;4.40;99.90;;;;;;5050197;28;20210;-69
2022/11/28 01:01:30;;;;;;;6.65;5.00;;;4.40;99.90;;;;;;5049837;28;20594;-69
2022/11/28 01:03:59;;;;;;;8.30;5.63;;;4.40;99.90;;;;;;5050107;28;20206;-70
2022/11/28 01:06:28;;;;;;;5.50;4.93;;;4.40;99.90;;;;;;5050232;28;20208;-69
2022/11/28 01:08:55;;;;;;;6.55;4.57;;;4.30;99.90;;;;;;5050245;28;20212;-69
2022/11/28 01:11:23;;;;;;;4.88;4.38;;;4.30;99.90;;;;;;5049884;28;20756;-69
2022/11/28 01:13:50;;;;;;;5.82;4.18;;;4.30;99.90;;;;;;5050221;28;20227;-69
2022/11/28 01:16:18;;;;;;;5.82;4.60;;;4.20;99.90;;;;;;5050343;28;20233;-69
2022/11/28 01:18:45;;;;;;;5.95;4.10;;;4.10;99.90;;;;;;5050026;28;20206;-70
2022/11/28 01:21:11;;;;;;;6.18;4.60;;;4.10;99.90;;;;;;5049468;28;20228;-68
2022/11/28 01:23:38;;;;;;;5.95;4.45;;;4.10;99.90;;;;;;5050048;28;20201;-69
2022/11/28 01:26:08;;;;;;;8.30;5.13;;;4.10;99.90;;;;;;5049991;28;20225;-69
2022/11/28 01:28:35;;;;;;;6.03;4.35;;;4.20;99.90;;;;;;5050129;28;20201;-70
2022/11/28 01:31:07;;;;;;;4.75;3.95;;;4.20;99.90;;;;;;5049647;28;20566;-69
2022/11/28 01:33:35;;;;;;;5.65;3.90;;;4.20;99.90;;;;;;5050078;28;20666;-69
2022/11/28 01:36:04;;;;;;;5.05;4.55;;;4.20;99.90;;;;;;5049741;28;20230;-69
2022/11/28 01:38:31;;;;;;;5.05;4.38;;;4.20;99.90;;;;;;5049989;28;20683;-69
2022/11/28 01:40:58;;;;;;;4.38;3.92;;;4.20;99.90;;;;;;5049120;28;20225;-69
2022/11/28 01:43:25;;;;;;;5.82;4.20;;;4.20;99.90;;;;;;5050077;28;20198;-69
2022/11/28 01:45:52;;;;;;;6.20;4.45;;;4.20;99.90;;;;;;5049505;28;20251;-69
2022/11/28 01:48:24;;;;;;;5.47;4.45;;;4.20;99.90;;;;;;5050147;28;20202;-68
2022/11/28 01:50:56;;;;;;;4.72;3.90;;;4.20;99.90;;;;;;5049590;28;20220;-70
2022/11/28 01:53:26;;;;;;;6.18;4.35;;;4.20;99.90;;;;;;5049753;28;20201;-69
2022/11/28 01:55:57;;;;;;;7.40;5.20;;;4.20;99.90;;;;;;5049646;28;20218;-70
2022/11/28 01:58:25;;;;;;;6.10;4.50;;;4.20;99.90;;;;;;5049844;28;20621;-69
2022/11/28 02:00:52;;;;;;;5.18;4.60;;;4.20;99.90;;;;;;5049132;28;20640;-70
2022/11/28 02:03:22;;;;;;;4.35;3.92;;;4.20;99.90;;;;;;5049592;28;20205;-69
2022/11/28 02:05:52;;;;;;;6.80;4.60;;;4.30;99.90;;;;;;5051726;28;20592;-69
2022/11/28 02:08:19;;;;;;;5.00;4.00;;;4.30;99.90;;;;;;5053960;28;20576;-70
2022/11/28 02:11:05;;;;;;;6.82;4.20;;;4.30;99.90;;;;;;5052842;28;20193;-69
2022/11/28 02:13:44;;;;;;;6.05;4.60;;;4.20;99.90;;;;;;5053913;28;20562;-71
2022/11/28 02:16:40;;;;;;;4.38;3.85;;;4.20;99.90;;;;;;5053527;28;20328;-69
2022/11/28 02:19:41;;;;;;;4.20;3.67;;;4.20;99.90;;;;;;5048336;28;20197;-70
2022/11/28 02:22:16;;;;;;;4.22;3.80;;;4.20;99.90;;;;;;5052791;28;20228;-69
2022/11/28 02:25:01;;;;;;;5.75;4.78;;;4.20;99.90;;;;;;5053297;28;20715;-69
2022/11/28 02:28:04;;;;;;;4.68;4.28;;;4.20;99.90;;;;;;5053560;28;20204;-70
2022/11/28 02:30:44;;;;;;;6.50;4.25;;;4.20;99.90;;;;;;5042623;28;20197;-70
2022/11/28 02:33:17;;;;;;;5.07;4.07;;;4.20;99.90;;;;;;5053027;28;20206;-70
2022/11/28 02:35:56;;;;;;;5.95;4.15;;;4.10;99.90;;;;;;5053079;28;20225;-69
2022/11/28 02:38:36;;;;;;;6.78;4.30;;;4.10;99.90;;;;;;5053159;28;20645;-69
2022/11/28 02:41:10;;;;;;;7.15;4.30;;;4.00;99.90;;;;;;5052425;28;20229;-69
2022/11/28 02:43:44;;;;;;;6.97;4.50;;;4.00;99.90;;;;;;5053365;28;20248;-69
2022/11/28 02:46:15;;;;;;;6.00;4.43;;;4.10;99.90;;;;;;5053293;28;20229;-70
2022/11/28 02:48:48;;;;;;;7.78;4.32;;;4.10;99.90;;;;;;5052631;28;20201;-69
2022/11/28 02:51:20;;;;;;;5.05;4.57;;;4.10;99.90;;;;;;5052348;28;20206;-70
2022/11/28 02:53:49;;;;;;;6.97;5.53;;;4.10;99.90;;;;;;5052807;28;20210;-70
2022/11/28 02:56:16;;;;;;;6.10;4.57;;;4.10;99.90;;;;;;5052740;28;20737;-70
2022/11/28 02:58:43;;;;;;;6.38;4.85;;;4.10;99.90;;;;;;5052787;28;20221;-70
2022/11/28 03:01:17;;;;;;;4.75;4.22;;;4.10;99.90;;;;;;5052190;28;20218;-70
2022/11/28 03:04:09;;;;;;;6.20;5.47;;;4.10;99.90;;;;;;5052541;28;20205;-69
2022/11/28 03:06:46;;;;;;;6.15;4.55;;;4.10;99.90;;;;;;5052813;28;20213;-70
2022/11/28 03:09:28;;;;;;;8.63;4.50;;;4.10;99.90;;;;;;5053022;28;20208;-70
2022/11/28 03:12:03;;;;;;;6.70;4.68;;;4.10;99.90;;;;;;5052081;28;20578;-69
2022/11/28 03:14:43;;;;;;;6.07;4.80;;;4.10;99.90;;;;;;5052574;28;20601;-69
2022/11/28 03:17:18;;;;;;;5.00;4.47;;;4.10;99.90;;;;;;5051288;28;20220;-70
2022/11/28 03:19:55;;;;;;;6.30;4.85;;;4.10;99.90;;;;;;5052199;28;20656;-69
2022/11/28 03:22:28;;;;;;;6.43;4.20;;;4.00;99.90;;;;;;5051945;28;20248;-70
2022/11/28 03:24:59;;;;;;;6.15;4.50;;;4.00;99.90;;;;;;5052100;28;20237;-70
2022/11/28 03:27:31;;;;;;;9.27;5.15;;;4.10;99.90;;;;;;5052355;28;20692;-69
2022/11/28 03:30:03;;;;;;;7.88;4.55;;;4.10;99.90;;;;;;5051917;28;20570;-70
2022/11/28 03:32:34;;;;;;;6.22;5.10;;;4.10;99.90;;;;;;5051741;28;20238;-70
2022/11/28 03:35:07;;;;;;;6.15;4.30;;;4.10;99.90;;;;;;5051832;28;20225;-70
2022/11/28 03:37:37;;;;;;;9.40;5.68;;;4.10;99.90;;;;;;5052063;28;20555;-70
2022/11/28 03:40:08;;;;;;;9.40;5.00;;;4.10;99.90;;;;;;5051730;28;20583;-69
2022/11/28 03:42:39;;;;;;;6.82;4.90;;;4.10;99.90;;;;;;5051339;28;20225;-68
2022/11/28 03:45:10;;;;;;;8.63;5.18;;;4.10;99.90;;;;;;5051673;28;20234;-69
2022/11/28 03:47:41;;;;;;;6.68;5.47;;;4.10;99.90;;;;;;5051682;28;20197;-69
2022/11/28 03:50:15;;;;;;;5.38;4.78;;;4.10;99.90;;;;;;5052017;28;20214;-69
2022/11/28 03:52:48;;;;;;;7.68;5.25;;;4.10;99.90;;;;;;5051820;28;20195;-69
2022/11/28 03:55:19;;;;;;;7.80;5.75;;;4.10;99.90;;;;;;5051696;28;20228;-69
2022/11/28 03:57:51;;;;;;;6.53;5.00;;;4.00;99.90;;;;;;5051791;28;20673;-69
2022/11/28 04:00:18;;;;;;;8.57;4.90;;;4.00;99.90;;;;;;5051363;28;20202;-70
2022/11/28 04:02:54;;;;;;;6.07;4.80;;;4.00;99.90;;;;;;5051169;28;20229;-69
2022/11/28 04:05:29;;;;;;;5.75;4.80;;;3.90;99.90;;;;;;5051701;28;20580;-69
2022/11/28 04:08:00;;;;;;;8.05;5.10;;;3.90;99.90;;;;;;5051800;28;20208;-70
2022/11/28 04:10:33;;;;;;;5.50;4.90;;;3.90;99.90;;;;;;5051076;28;20206;-69
2022/11/28 04:13:05;;;;;;;6.95;4.90;;;3.90;99.90;;;;;;5051409;28;20210;-69
2022/11/28 04:15:39;;;;;;;7.43;6.05;;;3.90;99.90;;;;;;5051449;28;20232;-70
2022/11/28 04:18:18;;;;;;;7.70;5.40;;;3.90;99.90;;;;;;5051204;28;20201;-69
2022/11/28 04:20:52;;;;;;;4.60;4.20;;;3.90;99.90;;;;;;5050548;28;20212;-68
2022/11/28 04:23:21;;;;;;;4.90;4.10;;;3.90;99.90;;;;;;5051237;28;20201;-70
2022/11/28 04:25:52;;;;;;;3.88;3.50;;;4.00;99.90;;;;;;5051186;28;20218;-69
2022/11/28 04:28:25;;;;;;;4.13;3.45;;;4.00;99.90;;;;;;5051083;28;20217;-70
2022/11/28 04:30:53;;;;;;;4.35;3.50;;;4.20;99.90;;;;;;5050146;28;20198;-70
2022/11/28 04:33:23;;;;;;;7.03;3.80;;;4.20;99.90;;;;;;5051167;28;20236;-69
2022/11/28 04:35:54;;;;;;;4.10;3.30;;;4.30;99.90;;;;;;5043876;28;20219;-70
2022/11/28 04:38:24;;;;;;;4.18;2.95;;;4.40;99.90;;;;;;5019504;28;20201;-70
2022/11/28 04:40:54;;;;;;;3.65;3.35;;;4.50;99.90;;;;;;5017924;28;20195;-69
2022/11/28 04:43:26;;;;;;;5.50;3.60;;;4.50;99.90;;;;;;5019500;28;20202;-70
2022/11/28 04:48:21;;;;;;;3.90;3.47;;;4.50;99.90;;;;;;5008686;28;20234;-70
2022/11/28 04:50:54;;;;;;;3.70;3.20;;;4.50;99.90;;;;;;5002798;28;20199;-71
2022/11/28 04:53:25;;;;;;;3.45;3.10;;;4.50;99.90;;;;;;5003586;28;20573;-71
2022/11/28 04:56:00;;;;;;;5.13;3.38;;;4.50;99.90;;;;;;5011343;28;20210;-71
2022/11/28 04:58:32;;;;;;;3.67;3.38;;;4.50;99.90;;;;;;5011690;28;20239;-71
2022/11/28 05:01:03;;;;;;;6.38;3.20;;;4.50;99.90;;;;;;5003938;28;20548;-71
2022/11/28 05:03:31;;;;;;;3.95;3.28;;;4.50;99.90;;;;;;5000961;28;20210;-71
2022/11/28 05:06:00;;;;;;;5.65;3.60;;;4.40;99.90;;;;;;5001658;28;20215;-71
2022/11/28 05:08:27;;;;;;;4.10;3.30;;;4.40;99.90;;;;;;5000588;28;20200;-71
2022/11/28 05:10:53;;;;;;;5.45;3.85;;;4.30;99.90;;;;;;4996182;28;20196;-71
2022/11/28 05:13:20;;;;;;;4.90;3.85;;;4.30;99.90;;;;;;5004621;28;20204;-71
2022/11/28 05:15:47;;;;;;;4.25;2.92;;;4.20;99.90;;;;;;5000276;28;20215;-71
2022/11/28 05:18:14;;;;;;;4.30;3.08;;;4.20;99.90;;;;;;5002080;28;20648;-71
2022/11/28 05:20:41;;;;;;;4.47;3.38;;;4.20;99.90;;;;;;4999352;28;20231;-70
2022/11/28 05:23:09;;;;;;;3.50;3.20;;;4.20;99.90;;;;;;4999964;28;20223;-70
2022/11/28 05:25:38;;;;;;;4.35;3.25;;;4.20;99.90;;;;;;5001704;28;20608;-70
2022/11/28 05:28:05;;;;;;;3.72;2.97;;;4.30;99.90;;;;;;4998144;28;20194;-70
2022/11/28 05:30:32;;;;;;;3.92;3.53;;;4.20;99.90;;;;;;4998199;28;20206;-70
2022/11/28 05:32:58;;;;;;;3.10;2.90;;;4.20;99.90;;;;;;5009673;28;20568;-70
2022/11/28 05:35:25;;;;;;;5.68;3.30;;;4.20;99.90;;;;;;5009963;28;20752;-70
2022/11/28 05:37:52;;;;;;;5.10;3.33;;;4.20;99.90;;;;;;5009895;28;20199;-70
2022/11/28 05:40:20;;;;;;;5.20;3.75;;;4.20;99.90;;;;;;5010259;28;20694;-70
2022/11/28 05:42:47;;;;;;;3.50;3.20;;;4.10;99.90;;;;;;5014068;28;20227;-69
2022/11/28 05:45:13;;;;;;;4.90;3.67;;;4.10;99.90;;;;;;5014144;28;20253;-70
2022/11/28 05:47:40;;;;;;;5.97;4.28;;;4.20;99.90;;;;;;5014372;28;20214;-70
2022/11/28 05:50:08;;;;;;;5.05;3.75;;;4.20;99.90;;;;;;5014029;28;20203;-70
2022/11/28 05:52:34;;;;;;;4.13;3.20;;;4.20;99.90;;;;;;5014362;28;20576;-70
2022/11/28 05:55:01;;;;;;;4.60;3.55;;;4.20;99.90;;;;;;5014395;28;20234;-70
2022/11/28 05:57:31;;;;;;;4.30;2.75;;;4.20;99.90;;;;;;5014614;28;20202;-70
2022/11/28 05:59:58;;;;;;;3.53;2.85;;;4.10;99.90;;;;;;5014628;28;20213;-70
2022/11/28 06:02:25;;;;;;;5.65;3.28;;;4.20;99.90;;;;;;5013913;28;20223;-70
2022/11/28 06:04:51;;;;;;;3.92;3.15;;;4.20;99.90;;;;;;5014566;28;20223;-70
2022/11/28 06:07:18;;;;;;;4.90;3.20;;;4.30;99.90;;;;;;5014748;28;20204;-70
2022/11/28 06:09:45;;;;;;;4.70;3.10;;;4.30;99.90;;;;;;5014525;28;20211;-70
2022/11/28 06:12:12;;;;;;;3.72;3.05;;;4.40;99.90;;;;;;5013729;28;20269;-70
2022/11/28 06:14:40;;;;;;;4.28;3.88;;;4.50;99.90;;;;;;5014352;28;20805;-70
2022/11/28 06:17:07;;;;;;;5.50;4.00;;;4.50;99.90;;;;;;5014173;28;20226;-70
2022/11/28 06:19:33;;;;;;;4.78;2.90;;;4.50;99.90;;;;;;5014321;28;20199;-70
2022/11/28 06:22:00;;;;;;;9.20;3.70;;;4.60;99.90;;;;;;5013614;28;20227;-70
2022/11/28 06:24:27;;;;;;;4.70;3.00;;;4.60;99.90;;;;;;5014016;28;20230;-70
2022/11/28 06:26:54;;;;;;;6.97;3.50;;;4.70;99.90;;;;;;5014496;28;20583;-70
2022/11/28 06:29:21;;;;;;;4.00;3.45;;;4.70;99.90;;;;;;5014050;28;20207;-70
2022/11/28 06:31:49;;;;;;;3.70;3.05;;;4.70;99.90;;;;;;5013767;28;20269;-70
2022/11/28 06:34:16;;;;;;;4.32;2.85;;;4.70;99.90;;;;;;5013706;28;20222;-70
2022/11/28 06:36:44;;;;;;;3.92;3.50;;;4.80;99.90;;;;;;5014198;28;20203;-70
2022/11/28 06:39:13;;;;;;;3.72;3.10;;;4.80;99.90;;;;;;5013499;28;20207;-70
2022/11/28 06:41:39;;;;;;;3.67;3.13;;;4.80;99.90;;;;;;5013318;28;20246;-70
2022/11/28 06:44:06;;;;;;;4.70;2.85;;;4.90;99.90;;;;;;5013503;28;20670;-70
2022/11/28 06:46:33;;;;;;;5.57;3.38;;;4.90;99.90;;;;;;5013554;28;20229;-70
2022/11/28 06:49:01;;;;;;;5.13;3.15;;;5.00;99.90;;;;;;5013515;28;20200;-70
2022/11/28 06:51:28;;;;;;;8.77;3.25;;;5.00;99.90;;;;;;5013052;28;20209;-70
2022/11/28 06:53:55;;;;;;;3.80;3.00;;;5.10;99.90;;;;;;5013831;28;20573;-70
2022/11/28 06:56:22;;;;;;;4.40;2.60;;;5.20;99.90;;;;;;5013482;28;20645;-70
2022/11/28 06:58:54;;;;;;;5.88;3.20;;;5.20;99.90;;;;;;5013697;28;20203;-70
2022/11/28 07:01:23;;;;;;;3.35;2.72;;;5.20;99.90;;;;;;5012660;28;20299;-70
2022/11/28 07:03:53;;;;;;;4.70;3.33;;;5.30;99.90;;;;;;5013806;28;20214;-70
2022/11/28 07:06:22;;;;;;;3.55;3.00;;;5.30;99.90;;;;;;5013044;28;20226;-70
2022/11/28 07:08:49;;;;;;;3.45;2.55;;;5.30;99.90;;;;;;5013447;28;20231;-70
2022/11/28 07:11:18;;;;;;;7.60;3.75;;;5.30;99.90;;;;;;5012480;28;20579;-70
2022/11/28 07:13:45;;;;;;;2.90;2.42;;;5.40;99.90;;;;;;5013298;28;20213;-70
2022/11/28 07:16:15;;;;;;;4.22;2.90;;;5.40;99.90;;;;;;5013107;28;20223;-70
2022/11/28 07:18:42;;;;;;;4.70;3.30;;;5.40;99.90;;;;;;5006985;28;20231;-70
2022/11/28 07:21:09;;;;;;;3.30;2.90;;;5.40;99.90;;;;;;5012020;28;20207;-70
2022/11/28 07:23:38;;;;;;;4.03;2.90;;;5.40;99.90;;;;;;5012406;28;20245;-70
2022/11/28 07:26:06;;;;;;;3.50;3.05;;;5.50;99.90;;;;;;5011660;28;20224;-70
2022/11/28 07:28:33;;;;;;;4.07;2.72;;;5.50;99.90;;;;;;5012370;28;20210;-70
2022/11/28 07:31:02;;;;;;;4.10;3.65;;;5.50;99.90;;;;;;5011911;28;20210;-70
2022/11/28 07:33:29;;;;;;;5.03;2.90;;;5.50;99.90;;;;;;5011996;28;20202;-70
2022/11/28 07:36:00;;;;;;;3.53;2.83;;;5.40;99.90;;;;;;5012517;28;20226;-70
2022/11/28 07:38:27;;;;;;;3.35;2.80;;;5.40;99.90;;;;;;5012082;28;20591;-70
2022/11/28 07:40:55;;;;;;;6.85;3.40;;;5.50;99.90;;;;;;5011371;28;20199;-70
2022/11/28 07:43:22;;;;;;;4.18;3.10;;;5.50;99.90;;;;;;5012150;28;20223;-70
2022/11/28 07:45:48;;;;;;;5.13;3.50;;;5.50;99.90;;;;;;5012345;28;20230;-70
2022/11/28 07:48:15;;;;;;;3.97;2.85;;;5.50;99.90;;;;;;5011539;28;20218;-70
2022/11/28 07:50:42;;;;;;;4.57;2.67;;;5.50;99.90;;;;;;5011191;28;20207;-70
2022/11/28 07:53:08;;;;;;;3.30;3.00;;;5.60;99.90;;;;;;5012168;28;20572;-70
2022/11/28 07:55:36;;;;;;;3.70;2.70;;;5.60;99.90;;;;;;5012054;28;20243;-70
2022/11/28 07:58:04;;;;;;;4.72;2.85;;;5.60;99.90;;;;;;5012085;28;20199;-70
2022/11/28 08:00:31;;;;;;;3.13;2.83;;;5.60;99.90;;;;;;5011512;28;20226;-70
2022/11/28 08:02:58;;;;;;;4.15;2.95;;;5.60;99.90;;;;;;5010874;28;20724;-70
2022/11/28 08:05:26;;;;;;;2.95;2.45;;;5.60;99.90;;;;;;5012128;28;20273;-70
2022/11/28 08:07:53;;;;;;;3.85;3.45;;;5.60;99.90;;;;;;5012214;28;20580;-70
2022/11/28 08:10:20;;;;;;;4.15;3.10;;;5.60;99.90;;;;;;5010934;28;20633;-70
2022/11/28 08:12:47;;;;;;;3.90;2.90;;;5.60;99.90;;;;;;5012042;28;20581;-70
2022/11/28 08:15:15;;;;;;;3.50;2.55;;;5.60;99.90;;;;;;5011181;28;20721;-70
2022/11/28 08:17:42;;;;;;;3.80;2.65;;;5.70;99.90;;;;;;5011710;28;20243;-70
2022/11/28 08:20:09;;;;;;;5.88;3.00;;;5.70;99.90;;;;;;5011160;28;20199;-70
2022/11/28 08:22:36;;;;;;;3.65;3.28;;;5.80;99.90;;;;;;5011345;28;20319;-70
2022/11/28 08:25:03;;;;;;;4.32;2.80;;;5.80;99.90;;;;;;5011352;28;20227;-70
2022/11/28 08:27:31;;;;;;;4.85;2.83;;;5.80;99.90;;;;;;5010985;28;20678;-70
2022/11/28 08:29:58;;;;;;;3.30;2.85;;;5.90;99.90;;;;;;5011492;28;20660;-70
2022/11/28 08:32:28;;;;;;;4.38;3.33;;;5.90;99.90;;;;;;5010276;28;20202;-70
2022/11/28 08:34:55;;;;;;;4.18;3.20;;;6.00;99.90;;;;;;5011153;28;20627;-70
2022/11/28 08:37:22;;;;;;;5.30;2.75;;;6.10;99.90;;;;;;5010609;28;20216;-70
2022/11/28 08:39:49;;;;;;;2.97;2.60;;;6.10;99.90;;;;;;5009973;28;20203;-70
2022/11/28 08:42:16;;;;;;;3.30;2.85;;;6.10;99.90;;;;;;5010199;28;20225;-70
2022/11/28 08:44:42;;;;;;;3.75;3.10;;;6.20;99.90;;;;;;5010857;28;20226;-70
2022/11/28 08:47:09;;;;;;;2.60;2.22;;;6.20;99.90;;;;;;5010565;28;20211;-70
2022/11/28 08:49:38;;;;;;;4.30;2.60;;;6.20;99.90;;;;;;5010750;28;20203;-70
2022/11/28 08:52:06;;;;;;;3.45;2.60;;;6.30;99.90;;;;;;5009796;28;20253;-70
2022/11/28 08:54:32;;;;;;;4.28;3.25;;;6.40;99.90;;;;;;5010002;28;20238;-70
2022/11/28 08:57:00;;;;;;;2.50;2.30;;;6.40;99.90;;;;;;5010527;28;20209;-70
2022/11/28 08:59:27;;;;;;;2.47;2.25;;;6.50;99.90;;;;;;5010230;28;20585;-70
2022/11/28 09:01:54;;;;;;;2.80;2.35;;;6.50;99.90;;;;;;5010010;28;20210;-70
2022/11/28 09:04:21;;;;;;;3.15;2.45;;;6.60;99.90;;;;;;5009968;28;20235;-70
2022/11/28 09:06:49;;;;;;;3.90;2.50;;;6.70;99.90;;;;;;5010481;28;20199;-70
2022/11/28 09:09:15;;;;;;;3.13;2.22;;;6.80;99.90;;;;;;5009553;28;20233;-70
2022/11/28 09:11:43;;;;;;;3.20;2.00;;;6.90;99.90;;;;;;5009998;28;20210;-70
2022/11/28 09:14:10;;;;;;;2.60;2.30;;;6.90;99.90;;;;;;5010044;28;20294;-70
2022/11/28 09:16:38;;;;;;;2.50;1.70;;;7.00;99.90;;;;;;5009355;28;20203;-70
2022/11/28 09:19:07;;;;;;;2.75;2.30;;;7.10;99.90;;;;;;5009811;28;20213;-69
2022/11/28 09:21:34;;;;;;;2.22;1.73;;;7.20;99.90;;;;;;5009811;28;20226;-69
2022/11/28 09:24:03;;;;;;;4.30;1.95;;;7.20;99.90;;;;;;5009383;28;20218;-70
2022/11/28 09:26:29;;;;;;;3.22;2.60;;;7.30;99.90;;;;;;5010284;28;20294;-69
2022/11/28 09:28:56;;;;;;;2.45;2.25;;;7.30;99.90;;;;;;5009722;28;20207;-70
2022/11/28 09:31:23;;;;;;;3.88;2.10;;;7.40;99.90;;;;;;5009014;28;20203;-69
2022/11/28 09:33:50;;;;;;;2.50;2.15;;;7.50;99.90;;;;;;5010295;28;20214;-69
2022/11/28 09:36:19;;;;;;;2.88;2.13;;;7.50;99.90;;;;;;5009744;28;20224;-69
2022/11/28 09:38:47;;;;;;;2.38;2.17;;;7.60;99.90;;;;;;5009787;28;20217;-69
2022/11/28 09:41:37;;;;;;;2.13;1.83;;;7.60;99.90;;;;;;5008824;28;20645;-70
2022/11/28 09:44:11;;;;;;;2.22;2.03;;;7.60;99.90;;;;;;5009763;28;20229;-69
2022/11/28 09:46:39;;;;;;;2.95;2.30;;;7.70;99.90;;;;;;5009693;28;20217;-69
2022/11/28 09:49:19;;;;;;;4.10;1.90;;;7.70;99.90;;;;;;5009342;28;20682;-69
2022/11/28 09:51:51;;;;;;;3.53;2.15;;;7.80;99.90;;;;;;5009245;28;20552;-69
2022/11/28 09:54:22;;;;;;;2.15;1.67;;;7.80;99.90;;;;;;5009110;28;20230;-69
2022/11/28 09:56:51;;;;;;;7.63;1.90;;;7.80;99.90;;;;;;5010149;28;20201;-69
2022/11/28 09:59:24;;;;;;;3.28;2.40;;;7.80;99.90;;;;;;5009567;28;20550;-69
2022/11/28 10:02:00;;;;;;;3.15;2.17;;;7.80;99.90;;;;;;5009801;28;20211;-69
2022/11/28 10:04:37;;;;;;;2.65;2.22;;;7.80;99.90;;;;;;5009330;28;20235;-69
2022/11/28 10:07:11;;;;;;;2.55;1.73;;;7.80;99.90;;;;;;5009980;28;20595;-69
2022/11/28 10:09:48;;;;;;;4.80;2.30;;;7.70;99.90;;;;;;5009478;28;20203;-70
2022/11/28 10:12:30;;;;;;;2.75;2.10;;;7.70;99.90;;;;;;5009075;28;20208;-69
2022/11/28 10:15:09;;;;;;;4.15;2.33;;;7.80;99.90;;;;;;5009574;28;20246;-69
2022/11/28 10:17:49;;;;;;;2.78;2.10;;;7.80;99.90;;;;;;5009184;28;20675;-70
2022/11/28 10:20:22;;;;;;;3.42;2.80;;;7.90;99.90;;;;;;5008798;28;20224;-70
2022/11/28 10:22:55;;;;;;;3.97;2.97;;;7.90;99.90;;;;;;5009081;28;20279;-69
2022/11/28 10:25:30;;;;;;;4.32;3.25;;;7.80;99.90;;;;;;5009287;28;20607;-69
2022/11/28 10:27:58;;;;;;;4.07;3.33;;;7.80;99.90;;;;;;5012581;28;20214;-69
2022/11/28 10:30:26;;;;;;;6.20;3.47;;;7.80;99.90;;;;;;5011661;28;20300;-69
2022/11/28 10:33:03;;;;;;;3.97;3.47;;;7.70;99.90;;;;;;5013121;28;20213;-69
2022/11/28 10:35:38;;;;;;;4.90;3.42;;;7.70;99.90;;;;;;5013082;28;20235;-69
2022/11/28 10:38:11;;;;;;;7.65;4.25;;;7.70;99.90;;;;;;5012740;28;20209;-69
2022/11/28 10:40:44;;;;;;;5.53;3.95;;;7.70;99.90;;;;;;5012469;28;20209;-69
2022/11/28 10:43:24;;;;;;;5.13;4.00;;;7.70;99.90;;;;;;5012782;28;20230;-69
2022/11/28 10:45:57;;;;;;;4.10;3.70;;;7.80;99.90;;;;;;5012788;28;20226;-69
2022/11/28 10:48:37;;;;;;;6.15;4.00;;;7.80;99.90;;;;;;5013099;28;20199;-69
2022/11/28 10:51:17;;;;;;;5.03;3.30;;;7.80;99.90;;;;;;5012352;28;20214;-69
2022/11/28 10:53:51;;;;;;;5.10;3.72;;;7.80;99.90;;;;;;5012938;28;20589;-69
2022/11/28 10:56:30;;;;;;;6.38;4.13;;;7.80;99.90;;;;;;5011239;28;20215;-68
2022/11/28 10:59:05;;;;;;;4.35;3.78;;;7.80;99.90;;;;;;5007854;28;20213;-68
2022/11/28 11:01:36;;;;;;;4.38;3.05;;;7.80;99.90;;;;;;5002973;28;20191;-70
2022/11/28 11:04:02;;;;;;;5.90;4.10;;;7.80;99.90;;;;;;5011389;28;20219;-70
2022/11/28 11:06:29;;;;;;;4.90;3.20;;;7.70;99.90;;;;;;5011214;28;20195;-70
2022/11/28 11:08:56;;;;;;;4.72;3.65;;;7.70;99.90;;;;;;5000333;28;20203;-70
2022/11/28 11:11:27;;;;;;;5.40;3.60;;;7.70;99.90;;;;;;4991537;28;20210;-70
2022/11/28 11:13:59;;;;;;;3.78;3.30;;;7.70;99.90;;;;;;4992000;28;20636;-70
2022/11/28 11:16:45;;;;;;;4.20;3.80;;;7.70;99.90;;;;;;5005320;28;20261;-70
2022/11/28 11:19:23;;;;;;;7.75;3.90;;;7.80;99.90;;;;;;5010501;28;20213;-69
2022/11/28 11:22:00;;;;;;;5.65;4.30;;;7.80;99.90;;;;;;4994605;28;20204;-69
2022/11/28 11:24:27;;;;;;;4.53;4.07;;;7.80;99.90;;;;;;4991617;28;20274;-69
2022/11/28 11:27:01;;;;;;;6.90;3.70;;;7.90;99.90;;;;;;4991979;28;20293;-68
2022/11/28 11:29:34;;;;;;;3.85;3.35;;;7.90;99.90;;;;;;4991058;28;20258;-69
2022/11/28 11:32:05;;;;;;;4.30;3.83;;;7.90;99.90;;;;;;4991479;28;20252;-71
2022/11/28 11:34:37;;;;;;;4.50;3.97;;;8.00;99.90;;;;;;4991602;28;20767;-69
2022/11/28 11:37:30;;;;;;;5.22;4.15;;;8.00;99.90;;;;;;4991667;28;20213;-68
2022/11/28 11:39:58;;;;;;;6.90;4.85;;;8.00;99.90;;;;;;4991007;28;20219;-68
2022/11/28 11:42:26;;;;;;;5.40;4.90;;;8.00;99.90;;;;;;4990952;28;20571;-69
2022/11/28 11:44:55;;;;;;;5.10;4.18;;;8.00;99.90;;;;;;4991847;28;20226;-70
2022/11/28 11:47:41;;;;;;;8.70;5.10;;;8.00;99.90;;;;;;5003756;28;20218;-70
2022/11/28 11:50:17;;;;;;;6.60;4.72;;;7.90;99.90;;;;;;4991013;28;20618;-69
2022/11/28 11:52:43;;;;;;;7.30;3.67;;;7.90;99.90;;;;;;4991339;28;20242;-70
2022/11/28 11:55:15;;;;;;;6.55;4.10;;;7.80;99.90;;;;;;4990459;28;20223;-70
2022/11/28 11:57:48;;;;;;;5.50;3.60;;;7.70;99.90;;;;;;4991273;28;20196;-69
2022/11/28 12:00:19;;;;;;;3.58;2.90;;;7.60;99.90;;;;;;4997167;28;20212;-68
2022/11/28 12:02:52;;;;;;;5.13;3.30;;;7.60;99.90;;;;;;5010617;28;20479;-68
2022/11/28 12:05:22;;;;;;;3.40;3.00;;;7.60;99.90;;;;;;5010159;28;20591;-69
2022/11/28 12:07:57;;;;;;;3.83;3.50;;;7.60;99.90;;;;;;5010469;28;20564;-70
2022/11/28 12:10:27;;;;;;;3.70;3.33;;;7.60;99.90;;;;;;5009670;28;20210;-70
2022/11/28 12:12:54;;;;;;;7.63;3.85;;;7.60;99.90;;;;;;5069096;22;20231;-93
2022/11/28 12:15:34;;;;;;;4.25;3.30;;;7.60;99.90;;;;;;5039968;28;20617;-93
2022/11/28 12:18:15;;;;;;;7.03;3.22;;;7.70;99.90;;;;;;5031329;28;20718;-92
2022/11/28 12:20:56;;;;;;;3.80;3.15;;;7.80;99.90;;;;;;5032308;28;20197;-92
2022/11/28 12:23:43;;;;;;;3.55;3.22;;;7.80;99.90;;;;;;5030741;28;20241;-92
2022/11/28 12:26:26;;;;;;;7.95;3.00;;;7.80;99.90;;;;;;5032440;28;20193;-92
2022/11/28 12:29:10;;;;;;;3.83;3.20;;;7.80;99.90;;;;;;5032343;28;20243;-92
2022/11/28 12:31:49;;;;;;;5.20;3.22;;;7.80;99.90;;;;;;5027198;28;20237;-92
2022/11/28 12:34:27;;;;;;;3.90;2.90;;;7.80;99.90;;;;;;5039646;28;20222;-92
2022/11/28 12:37:04;;;;;;;4.15;3.28;;;7.90;99.90;;;;;;5039202;28;20216;-92
2022/11/28 12:39:39;;;;;;;3.33;3.10;;;7.80;99.90;;;;;;5039569;28;20662;-93
2022/11/28 12:42:21;;;;;;;3.17;2.60;;;7.90;99.90;;;;;;5046075;22;20266;-66
2022/11/28 12:45:03;;;;;;;4.22;2.72;;;7.90;99.90;;;;;;5045748;28;20672;-66
2022/11/28 12:47:42;;;;;;;3.10;2.80;;;7.80;99.90;;;;;;5049478;28;20217;-67
2022/11/28 12:50:23;;;;;;;2.95;2.72;;;7.80;99.90;;;;;;5049467;28;20201;-66
2022/11/28 12:52:58;;;;;;;3.70;3.00;;;7.80;99.90;;;;;;5049716;28;20199;-65
2022/11/28 12:55:32;;;;;;;2.88;2.58;;;7.90;99.90;;;;;;5049524;28;20223;-66
2022/11/28 12:58:05;;;;;;;4.90;3.08;;;8.00;99.90;;;;;;5048116;28;20194;-65
2022/11/28 13:00:34;;;;;;;4.00;3.15;;;8.00;99.90;;;;;;5049791;28;20673;-66
2022/11/28 13:03:11;;;;;;;4.68;2.95;;;8.00;99.90;;;;;;5050170;28;20194;-65
2022/11/28 13:05:46;;;;;;;6.50;2.97;;;8.10;99.90;;;;;;5047772;28;20220;-66
2022/11/28 13:08:43;;;;;;;3.65;2.42;;;8.20;99.90;;;;;;5049899;28;20205;-66
2022/11/28 13:11:22;;;;;;;3.22;2.63;;;8.20;99.90;;;;;;5047681;28;20270;-66
2022/11/28 13:13:52;;;;;;;4.90;2.80;;;8.20;99.90;;;;;;5048557;28;20702;-66
2022/11/28 13:21:27;;;;;;;3.25;2.80;;;8.30;99.90;;;;;;5005831;28;21046;-70
2022/11/28 13:23:58;;;;;;;3.72;2.78;;;8.30;99.90;;;;;;5009997;28;20218;-69